Time;durP1;ratioP1;P1;durP2;ratioP2;P2;SDS_P1;SDS_P2;PMS_P1;PMS_P2;Temp;Humidity;BMP_temperature;BMP_pressure;BME280_temperature;BME280_humidity;BME280_pressure;Samples;Min_cycle;Max_cycle;Signal;HPM_P1;HPM_P2
2024/03/23 05:00:33;;;;;;;2.90;1.97;;;8.70;97.30;;;;;;5989181;23;21115;-83
2024/03/23 05:02:59;;;;;;;1.83;1.10;;;8.70;97.30;;;;;;4951734;28;20505;-84
2024/03/23 05:05:24;;;;;;;1.17;1.07;;;8.70;97.30;;;;;;4953953;28;20222;-84
2024/03/23 05:07:50;;;;;;;1.00;0.90;;;8.70;97.30;;;;;;4953535;28;20469;-84
2024/03/23 05:10:16;;;;;;;2.33;2.13;;;8.70;97.30;;;;;;4954416;28;20557;-83
2024/03/23 05:12:41;;;;;;;1.30;1.20;;;8.70;97.30;;;;;;4927882;29;20771;-83
2024/03/23 05:15:07;;;;;;;1.10;1.10;;;8.70;97.30;;;;;;4923809;28;20423;-84
2024/03/23 05:17:33;;;;;;;2.17;1.23;;;8.70;97.30;;;;;;4930604;29;20331;-83
2024/03/23 05:19:59;;;;;;;10.43;1.40;;;8.70;97.30;;;;;;4930198;28;20183;-84
2024/03/23 05:22:25;;;;;;;1.73;1.60;;;8.60;97.30;;;;;;4949965;28;20976;-84
2024/03/23 05:24:50;;;;;;;1.20;1.10;;;8.60;97.30;;;;;;4938723;28;20267;-84
2024/03/23 05:27:16;;;;;;;1.10;1.00;;;8.60;97.30;;;;;;4952056;28;20183;-84
2024/03/23 05:29:41;;;;;;;1.43;1.00;;;8.60;97.30;;;;;;4955800;28;20616;-84
2024/03/23 05:32:07;;;;;;;1.67;1.57;;;8.60;97.30;;;;;;4934805;28;20203;-84
2024/03/23 05:34:32;;;;;;;1.93;1.83;;;8.60;97.30;;;;;;4929574;29;20697;-84
2024/03/23 05:36:58;;;;;;;2.10;1.47;;;8.60;97.30;;;;;;4934146;28;20262;-84
2024/03/23 05:39:24;;;;;;;1.17;1.10;;;8.60;97.30;;;;;;4932275;29;20183;-84
2024/03/23 05:41:49;;;;;;;1.20;1.10;;;8.60;97.30;;;;;;4933512;28;20191;-84
2024/03/23 05:44:15;;;;;;;3.03;2.43;;;8.60;97.30;;;;;;4951180;28;20201;-84
2024/03/23 05:46:41;;;;;;;2.13;1.97;;;8.60;97.30;;;;;;4941302;29;20178;-84
2024/03/23 05:49:07;;;;;;;2.40;1.20;;;8.60;97.30;;;;;;4950675;28;20218;-84
2024/03/23 05:51:33;;;;;;;2.37;1.67;;;8.60;97.30;;;;;;4929737;29;20463;-84
2024/03/23 05:53:58;;;;;;;1.57;1.47;;;8.60;97.30;;;;;;4934680;28;20266;-85
2024/03/23 05:56:25;;;;;;;1.57;1.50;;;8.60;97.30;;;;;;4929974;29;20581;-84
2024/03/23 05:58:51;;;;;;;1.47;1.47;;;8.60;97.30;;;;;;4931055;28;20183;-84
2024/03/23 06:01:17;;;;;;;2.63;1.47;;;8.60;97.30;;;;;;4930117;29;20474;-84
2024/03/23 06:03:43;;;;;;;2.70;1.63;;;8.60;97.30;;;;;;4930396;29;20204;-84
2024/03/23 06:06:11;;;;;;;1.50;1.43;;;8.60;97.30;;;;;;4931588;28;21012;-84
2024/03/23 06:08:37;;;;;;;3.97;2.40;;;8.60;97.30;;;;;;4927634;29;20423;-84
2024/03/23 06:11:07;;;;;;;1.00;0.90;;;8.60;97.30;;;;;;4953343;28;20489;-84
2024/03/23 06:13:33;;;;;;;3.40;1.60;;;8.60;97.30;;;;;;4945409;28;20246;-84
2024/03/23 06:15:59;;;;;;;1.40;1.30;;;8.60;97.30;;;;;;4930048;28;20411;-84
2024/03/23 06:18:25;;;;;;;6.50;2.40;;;8.60;97.30;;;;;;4942679;28;20440;-84
2024/03/23 06:20:50;;;;;;;1.40;1.10;;;8.60;97.30;;;;;;4933024;28;20439;-85
2024/03/23 06:23:17;;;;;;;2.00;1.90;;;8.60;97.30;;;;;;4923098;29;20287;-85
2024/03/23 06:25:42;;;;;;;2.57;1.70;;;8.60;97.30;;;;;;4926235;29;20258;-85
2024/03/23 06:28:08;;;;;;;1.37;1.27;;;8.50;97.30;;;;;;4926327;28;20566;-85
2024/03/23 06:30:34;;;;;;;2.03;1.90;;;8.50;97.30;;;;;;4947919;28;20460;-85
2024/03/23 06:32:59;;;;;;;2.20;1.10;;;8.50;97.30;;;;;;4943814;28;20589;-84
2024/03/23 06:35:25;;;;;;;6.03;1.87;;;8.60;97.30;;;;;;4948412;28;20202;-85
2024/03/23 06:37:50;;;;;;;1.37;1.10;;;8.50;97.30;;;;;;4935303;29;20586;-85
2024/03/23 06:40:16;;;;;;;1.00;0.90;;;8.50;97.30;;;;;;4932877;28;20183;-85
2024/03/23 06:42:41;;;;;;;9.40;1.73;;;8.50;97.30;;;;;;4944515;28;20671;-85
2024/03/23 06:45:07;;;;;;;2.30;1.57;;;8.50;97.30;;;;;;4929754;28;20543;-85
2024/03/23 06:47:32;;;;;;;1.23;1.20;;;8.50;97.30;;;;;;4964301;23;20241;-63
2024/03/23 06:50:03;;;;;;;1.43;1.27;;;8.50;97.30;;;;;;4987105;28;20205;-63
2024/03/23 06:52:29;;;;;;;5.03;1.87;;;8.50;97.30;;;;;;4961835;28;20341;-63
2024/03/23 06:54:55;;;;;;;1.20;1.10;;;8.50;97.30;;;;;;4963248;28;20418;-63
2024/03/23 06:57:20;;;;;;;1.33;1.23;;;8.50;97.30;;;;;;4950678;28;20461;-64
2024/03/23 06:59:46;;;;;;;1.87;1.00;;;8.40;97.30;;;;;;4945779;28;20197;-63
2024/03/23 07:02:12;;;;;;;1.50;1.40;;;8.40;97.30;;;;;;4969538;28;20293;-63
2024/03/23 07:04:39;;;;;;;1.27;1.17;;;8.40;97.30;;;;;;4965722;28;20214;-63
2024/03/23 07:07:04;;;;;;;2.40;1.57;;;8.40;97.30;;;;;;4951790;28;20186;-63
2024/03/23 07:09:30;;;;;;;2.57;1.77;;;8.30;97.30;;;;;;4952851;28;20867;-63
2024/03/23 07:11:59;;;;;;;1.33;1.30;;;8.30;97.30;;;;;;4963224;28;20218;-63
2024/03/23 07:14:24;;;;;;;2.77;2.57;;;8.30;97.30;;;;;;4958787;28;20301;-63
2024/03/23 07:16:50;;;;;;;1.47;1.37;;;8.30;97.30;;;;;;4943046;28;21028;-63
2024/03/23 07:19:17;;;;;;;4.20;3.93;;;8.30;97.30;;;;;;4959196;28;20179;-63
2024/03/23 07:21:43;;;;;;;21.73;2.70;;;8.30;97.30;;;;;;4955727;28;20448;-63
2024/03/23 07:24:09;;;;;;;1.87;1.60;;;8.30;97.30;;;;;;4962667;28;21000;-63
2024/03/23 07:26:34;;;;;;;2.27;1.80;;;8.30;97.30;;;;;;4947198;28;20431;-63
2024/03/23 07:29:00;;;;;;;2.77;1.50;;;8.20;97.30;;;;;;4967601;28;20628;-63
2024/03/23 07:31:26;;;;;;;0.90;0.80;;;8.20;97.30;;;;;;4959379;28;20285;-64
2024/03/23 07:33:51;;;;;;;1.00;0.90;;;8.20;97.30;;;;;;4976376;28;20187;-63
2024/03/23 07:36:17;;;;;;;1.40;1.30;;;8.10;97.30;;;;;;4950713;28;20191;-63
2024/03/23 07:38:46;;;;;;;0.80;0.80;;;8.00;97.30;;;;;;4941984;28;20191;-63
2024/03/23 07:41:17;;;;;;;2.70;1.53;;;7.90;97.30;;;;;;4972293;28;20491;-63
2024/03/23 07:43:43;;;;;;;0.90;0.80;;;7.90;97.30;;;;;;4945003;28;21001;-64
2024/03/23 07:46:08;;;;;;;1.50;1.40;;;7.80;97.30;;;;;;4972003;28;20436;-64
2024/03/23 07:48:34;;;;;;;1.00;0.90;;;7.70;97.30;;;;;;4955534;28;20977;-64
2024/03/23 07:50:59;;;;;;;1.00;0.90;;;7.50;97.30;;;;;;4962825;28;20265;-64
2024/03/23 07:53:26;;;;;;;2.40;1.77;;;7.30;97.30;;;;;;4970086;28;20197;-62
2024/03/23 07:56:02;;;;;;;1.20;1.10;;;7.10;97.30;;;;;;4961800;28;20185;-64
2024/03/23 07:58:28;;;;;;;1.00;0.90;;;7.00;97.30;;;;;;4955763;28;20424;-64
2024/03/23 08:00:55;;;;;;;3.00;2.80;;;6.80;97.30;;;;;;4963146;28;20863;-66
2024/03/23 08:03:21;;;;;;;1.83;1.77;;;6.60;97.30;;;;;;4962955;28;20260;-64
2024/03/23 08:05:47;;;;;;;1.00;0.90;;;6.50;97.30;;;;;;4944265;28;20433;-66
2024/03/23 08:08:13;;;;;;;1.10;1.00;;;6.30;97.30;;;;;;4958411;28;20411;-66
2024/03/23 08:10:51;;;;;;;1.10;1.00;;;6.30;97.30;;;;;;4965986;28;20997;-65
2024/03/23 08:13:17;;;;;;;1.00;0.90;;;6.10;97.30;;;;;;4971649;28;20654;-64
2024/03/23 08:15:43;;;;;;;1.57;1.30;;;5.90;97.30;;;;;;4944939;28;20807;-63
2024/03/23 08:18:11;;;;;;;1.20;1.10;;;5.80;97.30;;;;;;4950181;28;20186;-65
2024/03/23 08:20:37;;;;;;;1.20;1.10;;;5.60;97.30;;;;;;4969948;28;20438;-65
2024/03/23 08:23:02;;;;;;;1.00;0.90;;;5.50;97.30;;;;;;4942569;28;20834;-64
2024/03/23 08:25:31;;;;;;;1.53;1.47;;;5.40;97.30;;;;;;4963962;28;20246;-65
2024/03/23 08:27:57;;;;;;;1.00;0.90;;;5.30;97.30;;;;;;4959364;28;20267;-66
2024/03/23 08:30:22;;;;;;;1.10;1.00;;;5.20;97.30;;;;;;4947093;28;20513;-64
2024/03/23 08:32:48;;;;;;;6.33;1.30;;;5.20;97.30;;;;;;4948574;28;20217;-67
2024/03/23 08:35:14;;;;;;;1.00;0.90;;;5.10;97.30;;;;;;4961702;28;20175;-65
2024/03/23 08:37:39;;;;;;;1.10;1.00;;;5.10;97.30;;;;;;4953671;28;20175;-65
2024/03/23 08:40:05;;;;;;;1.10;1.00;;;5.10;97.30;;;;;;4958159;28;20274;-65
2024/03/23 08:42:31;;;;;;;0.97;0.87;;;5.00;97.30;;;;;;4960857;28;20217;-67
2024/03/23 08:44:57;;;;;;;1.00;0.90;;;4.90;97.30;;;;;;4957771;28;20466;-65
2024/03/23 08:47:22;;;;;;;1.10;1.00;;;4.90;97.30;;;;;;4938467;28;20213;-66
2024/03/23 08:49:48;;;;;;;1.43;1.33;;;4.80;97.30;;;;;;4956947;28;20175;-65
2024/03/23 08:52:13;;;;;;;1.10;1.00;;;4.80;97.30;;;;;;4962265;28;20214;-64
2024/03/23 08:54:39;;;;;;;1.10;1.00;;;4.70;97.30;;;;;;4967190;28;20183;-63
2024/03/23 08:57:04;;;;;;;1.40;1.30;;;4.70;97.30;;;;;;4965462;28;20551;-66
2024/03/23 08:59:30;;;;;;;1.10;1.00;;;4.60;97.30;;;;;;4958724;28;20693;-65
2024/03/23 09:01:56;;;;;;;1.13;1.03;;;4.60;97.30;;;;;;4943972;28;20210;-65
2024/03/23 09:04:21;;;;;;;1.10;1.00;;;4.60;97.30;;;;;;4971720;28;20218;-65
2024/03/23 09:06:47;;;;;;;1.10;1.00;;;4.60;97.30;;;;;;4964417;28;20945;-66
2024/03/23 09:09:12;;;;;;;1.00;0.90;;;4.70;97.30;;;;;;4978446;28;20191;-65
2024/03/23 09:11:38;;;;;;;1.30;1.20;;;4.70;97.30;;;;;;4966444;28;20198;-64
2024/03/23 09:14:04;;;;;;;7.60;1.20;;;4.70;97.30;;;;;;4958760;28;20184;-65
2024/03/23 09:16:29;;;;;;;1.20;1.10;;;4.80;97.30;;;;;;4968632;28;20187;-65
2024/03/23 09:18:55;;;;;;;1.40;1.30;;;4.80;97.30;;;;;;4965306;28;20741;-65
2024/03/23 09:21:20;;;;;;;1.20;1.17;;;4.90;97.30;;;;;;4959795;28;20702;-65
2024/03/23 09:23:46;;;;;;;1.20;1.10;;;4.90;97.30;;;;;;4949274;28;20310;-65
2024/03/23 09:26:12;;;;;;;1.10;1.00;;;5.00;97.30;;;;;;4966622;28;20182;-65
2024/03/23 09:28:37;;;;;;;1.00;0.90;;;5.00;97.30;;;;;;4985438;28;20649;-65
2024/03/23 09:31:07;;;;;;;1.10;1.00;;;5.10;97.30;;;;;;4975250;28;20581;-65
2024/03/23 09:33:36;;;;;;;1.00;0.90;;;5.10;97.30;;;;;;4944796;28;20187;-64
2024/03/23 09:36:06;;;;;;;0.90;0.80;;;5.20;97.30;;;;;;4968511;28;20968;-64
2024/03/23 09:38:31;;;;;;;1.10;1.00;;;5.20;97.30;;;;;;4947969;28;20969;-65
2024/03/23 09:40:58;;;;;;;1.00;0.90;;;5.30;97.30;;;;;;4973237;28;20456;-66
2024/03/23 09:43:23;;;;;;;1.20;1.10;;;5.30;97.30;;;;;;4954418;28;20206;-65
2024/03/23 09:45:49;;;;;;;1.00;0.90;;;5.40;97.30;;;;;;4950900;28;20433;-65
2024/03/23 09:48:15;;;;;;;1.00;0.90;;;5.40;97.30;;;;;;4962715;28;20296;-68
2024/03/23 09:50:42;;;;;;;1.20;1.10;;;5.30;97.30;;;;;;4964481;28;20972;-68
2024/03/23 09:53:11;;;;;;;1.00;0.90;;;5.20;97.30;;;;;;4953563;28;20432;-63
2024/03/23 09:55:37;;;;;;;1.00;0.90;;;5.20;97.30;;;;;;4964675;28;20960;-68
2024/03/23 09:58:04;;;;;;;1.20;1.10;;;5.20;97.30;;;;;;4958617;28;20482;-65
2024/03/23 10:00:30;;;;;;;1.00;0.90;;;5.20;97.30;;;;;;4951185;28;20461;-67
2024/03/23 10:02:58;;;;;;;1.07;0.97;;;5.20;97.30;;;;;;4959273;28;20479;-66
2024/03/23 10:05:23;;;;;;;1.10;1.00;;;5.20;97.30;;;;;;4960672;28;20496;-67
2024/03/23 10:07:52;;;;;;;1.00;0.90;;;5.20;97.30;;;;;;4948438;28;20516;-67
2024/03/23 10:10:18;;;;;;;1.00;0.90;;;5.20;97.30;;;;;;4954548;28;21189;-65
2024/03/23 10:12:50;;;;;;;1.10;1.00;;;5.10;97.30;;;;;;4978229;28;20421;-64
2024/03/23 10:15:22;;;;;;;1.00;0.90;;;5.10;97.30;;;;;;4972116;28;20178;-64
2024/03/23 10:17:48;;;;;;;1.00;0.90;;;5.00;97.30;;;;;;4963359;28;20502;-63
2024/03/23 10:20:19;;;;;;;1.10;1.00;;;5.00;97.30;;;;;;4953479;28;20537;-63
2024/03/23 10:22:45;;;;;;;1.00;0.90;;;5.00;97.30;;;;;;4957116;28;20170;-64
2024/03/23 10:25:11;;;;;;;1.63;1.03;;;5.00;97.30;;;;;;4969864;28;20446;-63
2024/03/23 10:27:37;;;;;;;1.10;1.00;;;5.00;97.30;;;;;;4946656;28;20461;-64
2024/03/23 10:30:16;;;;;;;1.30;1.20;;;5.00;97.30;;;;;;4950540;28;20477;-63
2024/03/23 10:32:42;;;;;;;0.90;0.80;;;4.90;97.30;;;;;;4949334;28;20174;-63
2024/03/23 10:35:18;;;;;;;1.00;0.90;;;4.80;97.30;;;;;;4962298;28;20424;-63
2024/03/23 10:37:46;;;;;;;1.00;0.90;;;4.80;97.30;;;;;;4944451;28;20639;-64
2024/03/23 10:40:12;;;;;;;1.10;1.00;;;4.80;97.30;;;;;;4970737;28;20890;-63
2024/03/23 10:42:39;;;;;;;0.90;0.80;;;4.80;97.30;;;;;;4955455;28;20910;-64
2024/03/23 10:45:05;;;;;;;0.97;0.87;;;4.70;97.30;;;;;;4969705;28;20426;-64
2024/03/23 10:47:32;;;;;;;1.00;0.90;;;4.70;97.30;;;;;;4952027;28;20875;-65
2024/03/23 10:49:58;;;;;;;1.10;1.00;;;4.50;97.30;;;;;;4971933;28;20443;-65
2024/03/23 10:52:23;;;;;;;1.00;0.90;;;4.60;97.30;;;;;;4964630;28;20582;-64
2024/03/23 10:54:51;;;;;;;1.10;1.00;;;4.70;97.30;;;;;;4960306;28;20190;-64
2024/03/23 10:57:23;;;;;;;1.20;1.10;;;4.80;97.30;;;;;;4948157;28;20226;-65
2024/03/23 10:59:49;;;;;;;1.00;0.90;;;4.80;97.30;;;;;;4952997;28;20517;-65
2024/03/23 11:02:21;;;;;;;1.10;1.00;;;4.80;97.30;;;;;;4957518;28;20862;-64
2024/03/23 11:04:49;;;;;;;1.60;1.50;;;4.70;97.30;;;;;;4944863;28;20471;-64
2024/03/23 11:07:24;;;;;;;1.30;1.20;;;4.70;97.30;;;;;;4940367;28;20485;-64
2024/03/23 11:09:52;;;;;;;1.50;1.40;;;4.70;97.30;;;;;;4955503;28;20426;-65
2024/03/23 11:12:23;;;;;;;2.43;1.53;;;4.80;97.30;;;;;;4940610;28;20451;-64
2024/03/23 11:14:54;;;;;;;2.03;1.33;;;4.90;97.30;;;;;;4955663;28;20436;-64
2024/03/23 11:17:21;;;;;;;1.10;1.03;;;5.10;97.30;;;;;;4965144;28;20457;-64
2024/03/23 11:20:00;;;;;;;1.83;1.63;;;5.20;97.30;;;;;;4959590;28;20460;-64
2024/03/23 11:22:39;;;;;;;1.20;1.10;;;5.30;97.30;;;;;;4965609;28;20464;-64
2024/03/23 11:25:24;;;;;;;1.07;0.97;;;5.30;97.30;;;;;;4969086;28;20609;-64
2024/03/23 11:27:52;;;;;;;1.50;1.40;;;5.40;97.30;;;;;;4939211;28;20432;-64
2024/03/23 11:30:26;;;;;;;1.10;1.00;;;5.60;97.30;;;;;;4968881;28;20910;-64
2024/03/23 11:32:55;;;;;;;0.97;0.87;;;5.70;97.30;;;;;;4964702;28;20422;-64
2024/03/23 11:35:34;;;;;;;1.20;1.10;;;5.80;97.30;;;;;;4951620;28;20497;-64
2024/03/23 11:38:06;;;;;;;1.50;1.03;;;5.90;97.30;;;;;;4950527;28;20525;-64
2024/03/23 11:40:33;;;;;;;1.30;1.20;;;5.90;97.30;;;;;;4964539;28;20529;-64
2024/03/23 11:43:01;;;;;;;1.10;1.00;;;5.80;97.30;;;;;;4947453;28;20783;-64
2024/03/23 11:45:27;;;;;;;1.37;1.27;;;5.90;97.30;;;;;;4959483;28;20458;-64
2024/03/23 11:48:06;;;;;;;14.07;10.30;;;5.90;97.30;;;;;;4956482;28;20474;-64
2024/03/23 11:50:33;;;;;;;1.30;1.20;;;6.10;97.30;;;;;;4955024;28;20439;-64
2024/03/23 11:53:08;;;;;;;1.00;0.90;;;6.30;97.30;;;;;;4945230;28;20517;-64
2024/03/23 11:55:53;;;;;;;1.93;1.83;;;6.30;97.30;;;;;;4955928;28;20429;-64
2024/03/23 11:58:23;;;;;;;3.17;1.40;;;6.50;97.30;;;;;;4968766;28;20866;-64
2024/03/23 12:00:56;;;;;;;1.20;1.10;;;6.80;97.30;;;;;;4976401;28;20438;-63
2024/03/23 12:03:25;;;;;;;2.37;2.17;;;7.20;97.30;;;;;;4974352;28;20454;-64
2024/03/23 12:05:54;;;;;;;6.27;1.77;;;7.60;97.30;;;;;;4951950;28;20426;-64
2024/03/23 12:08:34;;;;;;;2.20;1.00;;;7.80;97.30;;;;;;4975081;28;20429;-63
2024/03/23 12:11:15;;;;;;;1.37;1.27;;;8.10;97.30;;;;;;4963903;28;20437;-64
2024/03/23 12:13:43;;;;;;;1.00;0.90;;;8.20;97.30;;;;;;4949087;28;20426;-64
2024/03/23 12:16:20;;;;;;;1.03;0.93;;;8.50;97.30;;;;;;4951549;28;20421;-64
2024/03/23 12:18:47;;;;;;;3.43;1.10;;;8.80;97.30;;;;;;4949656;28;20425;-65
2024/03/23 12:21:13;;;;;;;1.00;0.90;;;8.80;97.30;;;;;;4939917;28;20454;-65
2024/03/23 12:23:39;;;;;;;1.10;1.00;;;8.50;97.30;;;;;;4944358;28;20483;-64
2024/03/23 12:26:06;;;;;;;2.10;1.73;;;8.70;97.30;;;;;;4945636;28;20192;-64
2024/03/23 12:28:32;;;;;;;0.90;0.80;;;9.10;97.30;;;;;;4957345;28;20425;-66
2024/03/23 12:30:57;;;;;;;1.90;1.83;;;9.10;97.30;;;;;;4968732;28;20454;-64
2024/03/23 12:33:23;;;;;;;1.27;1.17;;;8.80;97.30;;;;;;4963037;28;20513;-65
2024/03/23 12:35:53;;;;;;;1.53;1.10;;;8.70;97.30;;;;;;4961539;28;20193;-65
2024/03/23 12:38:19;;;;;;;5.97;1.40;;;8.60;97.30;;;;;;4945130;28;20179;-65
2024/03/23 12:40:51;;;;;;;0.90;0.80;;;8.30;97.30;;;;;;4960588;28;20457;-65
2024/03/23 12:43:17;;;;;;;1.60;1.50;;;8.60;97.30;;;;;;4953048;28;20229;-65
2024/03/23 12:45:49;;;;;;;1.30;1.20;;;9.30;97.30;;;;;;4955741;28;20421;-66
2024/03/23 12:48:15;;;;;;;1.30;1.20;;;9.30;97.30;;;;;;4947959;28;20516;-65
2024/03/23 12:50:41;;;;;;;0.93;0.83;;;8.90;97.30;;;;;;4960766;28;20492;-63
2024/03/23 12:53:06;;;;;;;0.90;0.80;;;9.30;97.30;;;;;;4971255;28;20937;-65
2024/03/23 12:55:34;;;;;;;0.97;0.90;;;9.30;97.30;;;;;;4949694;28;20186;-66
2024/03/23 12:58:00;;;;;;;0.80;0.70;;;9.00;97.30;;;;;;4942548;28;20234;-66
2024/03/23 13:00:25;;;;;;;1.27;1.17;;;9.10;97.30;;;;;;4960624;28;20445;-65
2024/03/23 13:02:51;;;;;;;1.23;1.13;;;9.20;97.30;;;;;;4963243;28;20651;-65
2024/03/23 13:05:16;;;;;;;4.03;3.73;;;9.70;97.30;;;;;;4940012;28;20183;-65
2024/03/23 13:07:42;;;;;;;1.00;0.90;;;10.40;97.30;;;;;;4957241;28;20662;-64
2024/03/23 13:10:08;;;;;;;1.17;1.07;;;10.80;97.00;;;;;;4959570;28;20187;-66
2024/03/23 13:12:34;;;;;;;1.13;1.03;;;10.80;97.20;;;;;;4944042;28;20202;-66
2024/03/23 13:15:00;;;;;;;5.60;4.80;;;10.80;95.30;;;;;;4953558;28;20454;-65
2024/03/23 13:17:29;;;;;;;3.07;1.10;;;10.70;95.60;;;;;;4939403;28;20191;-66
2024/03/23 13:19:57;;;;;;;59.20;28.87;;;10.80;95.40;;;;;;4956566;28;20468;-65
2024/03/23 13:22:23;;;;;;;1.20;1.10;;;11.00;95.30;;;;;;4964424;28;20529;-66
2024/03/23 13:24:48;;;;;;;1.13;1.03;;;11.10;95.20;;;;;;4938910;28;20571;-66
2024/03/23 13:27:14;;;;;;;0.90;0.90;;;11.30;94.50;;;;;;4957461;28;20183;-65
2024/03/23 13:29:40;;;;;;;1.00;0.90;;;11.60;95.70;;;;;;4939163;28;20660;-66
2024/03/23 13:32:06;;;;;;;1.67;1.57;;;11.70;93.50;;;;;;4955251;28;20570;-66
2024/03/23 13:34:33;;;;;;;3.73;3.07;;;11.90;92.60;;;;;;4974917;28;20183;-66
2024/03/23 13:36:58;;;;;;;2.00;1.27;;;11.90;93.10;;;;;;4971760;28;20839;-66
2024/03/23 13:39:25;;;;;;;9.77;4.93;;;11.50;92.60;;;;;;4965606;28;20517;-66
2024/03/23 13:41:50;;;;;;;2.17;2.00;;;11.50;94.30;;;;;;4956197;28;20206;-66
2024/03/23 13:44:16;;;;;;;1.40;1.30;;;11.70;94.80;;;;;;4969559;28;20959;-66
2024/03/23 13:46:42;;;;;;;2.63;1.53;;;11.60;94.50;;;;;;4964753;28;20198;-65
2024/03/23 13:49:23;;;;;;;0.90;0.80;;;11.10;92.60;;;;;;4971369;28;20229;-66
2024/03/23 13:51:49;;;;;;;1.23;1.13;;;10.70;94.20;;;;;;4970610;28;20536;-65
2024/03/23 13:54:14;;;;;;;0.90;0.80;;;10.20;93.50;;;;;;4948545;28;20549;-65
2024/03/23 13:56:40;;;;;;;17.70;2.33;;;9.80;93.60;;;;;;4973156;28;20193;-65
2024/03/23 13:59:05;;;;;;;1.43;1.40;;;9.70;95.90;;;;;;4957727;28;20194;-68
2024/03/23 14:01:31;;;;;;;1.57;1.57;;;9.70;96.60;;;;;;4956518;28;20727;-65
2024/03/23 14:03:57;;;;;;;1.37;1.27;;;9.50;95.90;;;;;;4958668;28;20226;-65
2024/03/23 14:06:22;;;;;;;2.30;2.10;;;9.30;96.80;;;;;;4958831;28;20459;-66
2024/03/23 14:08:50;;;;;;;1.30;1.20;;;8.50;97.30;;;;;;4970867;28;20581;-66
2024/03/23 14:11:18;;;;;;;2.33;2.17;;;8.00;97.30;;;;;;4967469;28;20286;-66
2024/03/23 14:13:44;;;;;;;1.10;1.00;;;8.20;97.30;;;;;;4970774;23;20509;-87
2024/03/23 14:16:09;;;;;;;1.50;1.40;;;8.80;97.30;;;;;;4968414;28;20970;-86
2024/03/23 14:18:35;;;;;;;1.10;1.00;;;9.70;97.30;;;;;;4974420;28;20422;-84
2024/03/23 14:21:01;;;;;;;1.20;1.10;;;10.10;97.30;;;;;;4987151;28;20178;-86
2024/03/23 14:23:33;;;;;;;0.93;0.83;;;10.20;96.50;;;;;;4983761;28;20576;-86
2024/03/23 14:25:59;;;;;;;1.27;1.17;;;10.30;95.60;;;;;;4991020;28;20511;-87
2024/03/23 14:28:25;;;;;;;1.87;1.20;;;10.40;95.20;;;;;;4984218;28;20516;-86
2024/03/23 14:30:51;;;;;;;1.47;1.37;;;10.50;95.20;;;;;;4991540;28;20170;-86
2024/03/23 14:33:20;;;;;;;1.07;0.97;;;10.30;95.70;;;;;;4985221;28;20289;-86
2024/03/23 14:35:59;;;;;;;1.20;1.10;;;9.90;96.80;;;;;;4981058;28;20452;-85
2024/03/23 14:38:25;;;;;;;1.40;1.30;;;9.10;95.10;;;;;;4975698;28;20426;-83
2024/03/23 14:40:53;;;;;;;1.10;1.00;;;7.90;97.30;;;;;;4988983;28;20436;-84
2024/03/23 14:43:19;;;;;;;1.23;1.13;;;7.10;97.30;;;;;;4983260;28;20577;-84
2024/03/23 14:46:11;;;;;;;1.47;1.20;;;6.60;97.30;;;;;;4981906;28;20435;-86
2024/03/23 14:48:37;;;;;;;1.37;1.27;;;6.10;97.30;;;;;;4988927;28;20424;-86
2024/03/23 14:51:08;;;;;;;1.20;1.10;;;6.00;97.30;;;;;;4976597;28;20417;-85
2024/03/23 14:53:34;;;;;;;5.80;1.67;;;5.90;97.30;;;;;;4983416;28;20443;-85
2024/03/23 14:56:01;;;;;;;3.93;2.03;;;5.80;97.30;;;;;;4987295;28;20415;-85
2024/03/23 14:58:27;;;;;;;1.43;1.30;;;5.80;97.30;;;;;;4972231;28;20433;-85
2024/03/23 15:00:59;;;;;;;1.50;1.40;;;5.80;97.30;;;;;;4964030;28;20710;-86
2024/03/23 15:03:24;;;;;;;1.67;1.53;;;5.80;97.30;;;;;;4971721;28;20321;-86
2024/03/23 15:05:53;;;;;;;1.33;1.23;;;5.80;97.30;;;;;;4960688;28;20423;-85
2024/03/23 15:08:18;;;;;;;3.33;1.37;;;5.80;97.30;;;;;;4960535;28;20414;-85
2024/03/23 15:10:43;;;;;;;1.20;1.10;;;5.80;97.30;;;;;;4968558;28;20437;-86
2024/03/23 15:13:09;;;;;;;1.13;1.03;;;5.70;97.30;;;;;;4971603;28;20238;-86
2024/03/23 15:15:40;;;;;;;5.50;1.73;;;5.70;97.30;;;;;;4970048;28;20202;-85
2024/03/23 15:18:06;;;;;;;1.37;1.27;;;5.70;97.30;;;;;;4966073;28;20708;-85
2024/03/23 15:20:33;;;;;;;1.00;0.90;;;5.80;97.30;;;;;;4969647;28;20512;-85
2024/03/23 15:22:59;;;;;;;1.27;1.17;;;6.40;97.30;;;;;;4971416;28;20517;-86
2024/03/23 15:25:24;;;;;;;1.30;1.20;;;6.90;97.30;;;;;;4970671;28;20906;-86
2024/03/23 15:27:50;;;;;;;1.00;0.90;;;7.70;97.30;;;;;;4970598;28;20237;-85
2024/03/23 15:30:15;;;;;;;1.40;1.30;;;8.10;97.30;;;;;;4970831;28;20578;-85
2024/03/23 15:32:41;;;;;;;1.27;1.17;;;8.60;97.30;;;;;;4969790;28;20715;-85
2024/03/23 15:35:07;;;;;;;1.37;1.27;;;8.50;97.30;;;;;;4971779;28;20190;-85
2024/03/23 15:37:40;;;;;;;1.57;1.37;;;8.50;97.30;;;;;;4971542;28;20592;-86
2024/03/23 15:40:07;;;;;;;1.07;0.97;;;8.50;97.30;;;;;;4972536;28;20430;-85
2024/03/23 15:42:32;;;;;;;1.30;1.20;;;8.60;97.30;;;;;;4970697;28;20446;-85
2024/03/23 15:44:58;;;;;;;2.03;1.40;;;8.80;97.30;;;;;;4970132;28;20454;-85
2024/03/23 15:47:23;;;;;;;1.30;1.20;;;9.50;97.30;;;;;;4969812;28;20310;-85
2024/03/23 15:49:49;;;;;;;1.00;0.90;;;9.90;97.30;;;;;;4970280;28;20183;-85
2024/03/23 15:52:15;;;;;;;1.10;1.00;;;9.50;97.30;;;;;;4970946;28;20182;-85
2024/03/23 15:54:42;;;;;;;0.90;0.80;;;9.10;97.30;;;;;;4955960;28;20430;-85
2024/03/23 15:57:08;;;;;;;1.30;1.20;;;9.50;97.30;;;;;;4970308;28;20206;-86
2024/03/23 15:59:33;;;;;;;1.17;1.07;;;10.10;97.30;;;;;;4962554;28;20419;-85
2024/03/23 16:01:59;;;;;;;1.97;1.17;;;9.90;97.30;;;;;;4975484;28;20175;-85
2024/03/23 16:04:24;;;;;;;2.03;0.90;;;9.20;97.30;;;;;;4977836;28;20210;-86
2024/03/23 16:06:50;;;;;;;2.20;1.10;;;9.30;97.30;;;;;;4979600;28;20186;-85
2024/03/23 16:09:15;;;;;;;0.90;0.80;;;9.90;97.30;;;;;;4979684;28;20184;-85
2024/03/23 16:11:41;;;;;;;1.87;1.47;;;10.30;97.30;;;;;;4978586;28;20190;-85
2024/03/23 16:14:07;;;;;;;1.00;0.90;;;10.30;97.20;;;;;;4997101;28;20692;-85
2024/03/23 16:16:32;;;;;;;1.20;1.20;;;9.50;97.30;;;;;;4982607;28;20440;-85
2024/03/23 16:18:58;;;;;;;3.30;1.97;;;9.00;97.30;;;;;;4980907;28;20182;-85
2024/03/23 16:21:23;;;;;;;1.10;1.00;;;8.70;97.30;;;;;;4989445;28;20272;-85
2024/03/23 16:23:49;;;;;;;1.37;1.30;;;8.40;97.30;;;;;;4989201;28;20213;-85
2024/03/23 16:26:16;;;;;;;1.27;1.17;;;8.50;97.30;;;;;;4992533;28;20181;-86
2024/03/23 16:28:42;;;;;;;1.13;1.03;;;8.60;97.30;;;;;;4998625;28;20185;-86
2024/03/23 16:31:09;;;;;;;1.30;1.20;;;8.80;97.30;;;;;;4989458;28;20528;-86
2024/03/23 16:33:35;;;;;;;3.17;1.37;;;9.30;97.30;;;;;;4998959;28;20221;-86
2024/03/23 16:36:14;;;;;;;2.53;2.27;;;9.40;97.30;;;;;;4982452;28;20554;-85
2024/03/23 16:38:41;;;;;;;1.63;1.60;;;8.60;97.30;;;;;;4994114;28;21005;-85
2024/03/23 16:41:08;;;;;;;2.37;2.17;;;8.10;97.30;;;;;;4998733;28;20435;-86
2024/03/23 16:43:35;;;;;;;3.23;1.10;;;7.80;97.30;;;;;;4997991;28;20463;-85
2024/03/23 16:46:06;;;;;;;1.73;1.63;;;7.50;97.30;;;;;;4983353;28;20754;-86
2024/03/23 16:48:33;;;;;;;2.50;1.50;;;7.40;97.30;;;;;;4989790;28;20517;-85
2024/03/23 16:51:05;;;;;;;1.50;1.40;;;7.20;97.30;;;;;;4984460;28;20461;-86
2024/03/23 16:53:31;;;;;;;1.43;1.33;;;7.10;97.30;;;;;;4975374;28;20480;-85
2024/03/23 16:55:58;;;;;;;1.43;1.33;;;7.00;97.30;;;;;;4986196;28;20837;-85
2024/03/23 16:58:25;;;;;;;3.60;1.73;;;7.00;97.30;;;;;;4989828;28;20489;-86
2024/03/23 17:00:52;;;;;;;1.23;1.13;;;6.90;97.30;;;;;;4985104;28;20844;-85
2024/03/23 17:03:19;;;;;;;2.70;1.83;;;6.80;97.30;;;;;;4986193;28;20470;-85
2024/03/23 17:05:45;;;;;;;1.87;1.77;;;6.80;97.30;;;;;;4983425;28;20449;-84
2024/03/23 17:08:11;;;;;;;1.10;1.00;;;6.80;97.30;;;;;;4981984;28;20448;-85
2024/03/23 17:10:36;;;;;;;1.10;1.00;;;6.80;97.30;;;;;;4981261;28;20204;-86
2024/03/23 17:13:02;;;;;;;4.40;1.63;;;6.80;97.30;;;;;;4981620;28;20261;-85
2024/03/23 17:15:28;;;;;;;2.80;2.60;;;6.80;97.30;;;;;;4980433;28;20190;-85
2024/03/23 17:17:53;;;;;;;1.60;1.47;;;6.80;97.30;;;;;;4976209;28;20194;-85
2024/03/23 17:20:19;;;;;;;4.00;1.43;;;6.90;97.30;;;;;;4979817;28;20373;-85
2024/03/23 17:22:44;;;;;;;1.67;1.00;;;6.80;97.30;;;;;;4982340;28;20206;-86
2024/03/23 17:25:10;;;;;;;1.10;1.00;;;6.80;97.30;;;;;;4993061;28;20221;-86
2024/03/23 17:27:36;;;;;;;1.90;1.40;;;6.80;97.30;;;;;;4986456;28;20170;-84
2024/03/23 17:30:02;;;;;;;1.00;0.90;;;6.60;97.30;;;;;;4978051;28;20197;-85
2024/03/23 17:32:28;;;;;;;1.40;1.30;;;6.20;97.30;;;;;;4984977;28;20978;-86
2024/03/23 17:34:53;;;;;;;1.77;1.67;;;6.00;97.30;;;;;;4993522;28;20192;-87
2024/03/23 17:37:19;;;;;;;4.77;1.83;;;5.80;97.30;;;;;;4992606;28;20504;-85
2024/03/23 17:39:45;;;;;;;1.00;0.90;;;5.70;97.30;;;;;;4992199;28;20648;-86
2024/03/23 17:42:10;;;;;;;3.80;2.07;;;5.60;97.30;;;;;;4985867;28;20177;-86
2024/03/23 17:44:38;;;;;;;1.20;1.10;;;5.50;97.30;;;;;;4993327;28;20284;-86
2024/03/23 17:47:04;;;;;;;1.30;1.20;;;5.40;97.30;;;;;;4983555;28;20653;-88
2024/03/23 17:49:29;;;;;;;1.30;1.20;;;5.40;97.30;;;;;;4978239;28;20421;-86
2024/03/23 17:52:00;;;;;;;1.33;1.23;;;5.40;97.30;;;;;;4976313;28;20185;-87
2024/03/23 17:54:26;;;;;;;2.00;1.67;;;5.40;97.30;;;;;;4993461;28;20561;-86